Terminal Aerodrome Forecast
Issued by NWS St Louis, MO

Home | Current Version | Previous Version | Text Only | Print | Product List | Glossary On
Versions: 1 2 3 4 5 6 7 8 9 10 11 12 13 14 15 16 17 18 19 20 21 22 23 24 25 26 27 28 29
926
FTUS43 KLSX 261735 AAB
TAFSTL
TAF AMD
KSTL 261735Z 2618/2724 20010G17KT P6SM OVC090
     FM262000 20011KT P6SM VCSH OVC050
     FM270600 17005KT P6SM BKN035
     FM271200 15005KT 5SM BR BKN020
     FM271500 16007KT P6SM SCT025=

USA.gov is the U.S. government's official web portal to all federal, state and local government web resources and services.